createdAt,value
2018-11-22T12:17:44.154Z,19.53
2018-11-22T12:20:13.534Z,18.97
2018-11-22T12:22:43.836Z,18.60
2018-11-22T12:25:15.062Z,17.80
2018-11-22T12:27:44.992Z,17.23
2018-11-22T12:30:17.308Z,17.23
2018-11-22T12:32:52.246Z,17.97
2018-11-22T12:35:26.357Z,16.70
2018-11-22T12:38:00.433Z,17.50
2018-11-22T12:40:29.253Z,16.87
2018-11-22T12:42:58.337Z,17.13
2018-11-22T12:45:27.758Z,16.27
2018-11-22T12:47:56.777Z,16.03
2018-11-22T12:50:25.601Z,16.77
2018-11-22T12:52:54.420Z,15.97
2018-11-22T12:55:23.273Z,17.23
2018-11-22T12:57:52.071Z,17.30
2018-11-22T13:00:20.967Z,17.77
2018-11-22T13:02:49.788Z,18.23
2018-11-22T13:05:19.874Z,17.83
2018-11-22T13:07:48.678Z,17.70
2018-11-22T13:10:18.572Z,17.13
2018-11-22T13:12:49.277Z,15.97
2018-11-22T13:15:19.912Z,16.33
2018-11-22T13:17:48.733Z,15.90
2018-11-22T13:20:19.364Z,16.23
2018-11-22T13:22:48.162Z,17.10
2018-11-22T13:25:18.674Z,16.57
2018-11-22T13:27:47.464Z,18.27
2018-11-22T13:30:19.943Z,18.47
2018-11-22T13:32:49.325Z,16.93
2018-11-22T13:35:19.097Z,16.80
2018-11-22T13:37:48.931Z,16.93
2018-11-22T13:40:17.772Z,17.43
2018-11-22T13:42:47.226Z,17.63
2018-11-22T13:45:18.513Z,17.77
2018-11-22T13:47:48.061Z,17.00
2018-11-22T13:50:20.527Z,17.47
2018-11-22T13:52:50.881Z,17.53
2018-11-22T13:55:19.756Z,17.83
2018-11-22T13:57:48.529Z,16.00
2018-11-22T14:00:20.882Z,15.67
2018-11-22T14:02:51.975Z,17.07
2018-11-22T14:05:20.834Z,16.17
2018-11-22T14:07:49.612Z,17.10
2018-11-22T14:10:19.574Z,19.47
2018-11-22T14:12:48.483Z,19.10
2018-11-22T14:15:18.738Z,16.53
2018-11-22T14:17:48.273Z,16.33
2018-11-22T14:20:20.268Z,17.83
2018-11-22T14:22:49.179Z,18.67
2018-11-22T14:25:18.345Z,18.53
2018-11-22T14:27:48.309Z,17.67
2018-11-22T14:30:18.395Z,17.07
2018-11-22T14:32:48.785Z,17.50
2018-11-22T14:35:19.033Z,17.67
2018-11-22T14:37:47.810Z,17.47
2018-11-22T14:40:21.263Z,17.50
2018-11-22T14:42:50.839Z,17.20
2018-11-22T14:45:19.752Z,17.83
2018-11-22T14:47:49.604Z,16.83
2018-11-22T14:50:27.225Z,17.97
2018-11-22T14:53:03.061Z,18.40
2018-11-22T14:55:31.928Z,16.93
2018-11-22T14:58:00.781Z,17.73
2018-11-22T15:00:29.628Z,18.33
2018-11-22T15:02:58.489Z,18.33
2018-11-22T15:05:27.376Z,17.93
2018-11-22T15:07:56.497Z,17.93
2018-11-22T15:10:25.341Z,19.00
2018-11-22T15:12:54.188Z,18.47
2018-11-22T15:15:24.457Z,18.53
2018-11-22T15:17:53.953Z,19.37
2018-11-22T15:20:22.878Z,17.40
2018-11-22T15:22:52.440Z,19.33
2018-11-22T15:25:22.752Z,20.07
2018-11-22T15:27:51.596Z,19.87
2018-11-22T15:30:22.757Z,18.70
2018-11-22T15:32:51.619Z,19.50
2018-11-22T15:35:22.013Z,19.97
2018-11-22T15:37:52.076Z,29.10
2018-11-22T15:40:22.402Z,25.37
2018-11-22T15:42:52.701Z,23.53
2018-11-22T15:45:23.388Z,22.57
2018-11-22T15:47:52.365Z,20.83
2018-11-22T15:50:23.408Z,22.17
2018-11-22T15:52:52.361Z,21.10
2018-11-22T15:55:22.257Z,23.90
2018-11-22T15:57:52.880Z,22.47
2018-11-22T16:00:26.458Z,24.47
2018-11-22T16:02:55.874Z,28.53
2018-11-22T16:05:25.673Z,31.83
2018-11-22T16:07:54.546Z,37.67
2018-11-22T16:10:26.938Z,38.43
2018-11-22T16:12:56.309Z,41.53
2018-11-22T16:15:31.381Z,104.43
2018-11-22T16:18:00.312Z,81.30
2018-11-22T16:20:29.143Z,47.80
2018-11-22T16:22:58.117Z,37.23
2018-11-22T16:25:27.018Z,28.93
2018-11-22T16:27:55.943Z,29.87
2018-11-22T16:30:26.042Z,27.57
2018-11-22T16:32:54.948Z,28.97
2018-11-22T16:35:33.274Z,28.07
2018-11-22T16:37:55.375Z,27.90
2018-11-22T16:40:25.704Z,28.43
2018-11-22T16:42:55.411Z,30.73
2018-11-22T16:45:27.798Z,27.97
2018-11-22T16:47:57.645Z,27.93
2018-11-22T16:50:27.625Z,30.43
2018-11-22T16:52:56.722Z,27.13
2018-11-22T16:55:26.476Z,27.20
2018-11-22T16:57:56.328Z,26.43
2018-11-22T17:00:26.944Z,25.53
2018-11-22T17:02:57.196Z,25.20
2018-11-22T17:05:27.216Z,24.67
2018-11-22T17:07:56.233Z,20.43
2018-11-22T17:10:26.356Z,20.10
2018-11-22T17:12:56.371Z,22.20
2018-11-22T17:15:26.741Z,20.50
2018-11-22T17:17:56.264Z,22.53
2018-11-22T17:20:25.695Z,39.87
2018-11-22T17:22:54.851Z,39.10
2018-11-22T17:25:25.158Z,44.83
2018-11-22T17:27:56.412Z,51.13
2018-11-22T17:30:27.700Z,50.53
2018-11-22T17:32:56.480Z,47.13
2018-11-22T17:35:26.445Z,43.13
2018-11-22T17:37:56.857Z,36.67
2018-11-22T17:40:27.030Z,33.80
2018-11-22T17:42:55.824Z,32.40
2018-11-22T17:45:26.879Z,28.87
2018-11-22T17:47:55.783Z,28.50
2018-11-22T17:50:27.316Z,28.63
2018-11-22T17:52:56.187Z,29.40
2018-11-22T17:55:26.377Z,27.73
2018-11-22T17:57:55.172Z,27.77
2018-11-22T18:00:28.278Z,36.27
2018-11-22T18:02:58.378Z,30.13
2018-11-22T18:05:27.572Z,32.57
2018-11-22T18:07:56.165Z,36.57
2018-11-22T18:10:27.417Z,34.10
2018-11-22T18:12:56.700Z,30.77
2018-11-22T18:15:26.217Z,33.03
2018-11-22T18:17:55.605Z,31.73
2018-11-22T18:20:25.886Z,32.10
2018-11-22T18:22:56.160Z,29.80
2018-11-22T18:25:26.449Z,35.83
2018-11-22T18:27:55.258Z,40.87
2018-11-22T18:30:25.715Z,38.90
2018-11-22T18:32:55.808Z,44.83
2018-11-22T18:35:24.603Z,38.43
2018-11-22T18:37:53.409Z,38.70
2018-11-22T18:40:23.525Z,33.87
2018-11-22T18:42:53.324Z,34.60
2018-11-22T18:45:27.646Z,37.97
2018-11-22T18:47:56.521Z,37.83
2018-11-22T18:50:26.338Z,40.43
2018-11-22T18:52:55.155Z,35.50
2018-11-22T18:55:24.010Z,35.47
2018-11-22T18:57:52.833Z,31.20
2018-11-22T19:00:25.702Z,31.43
2018-11-22T19:02:55.933Z,31.40
2018-11-22T19:05:24.800Z,30.87
2018-11-22T19:07:54.203Z,30.47
2018-11-22T19:10:25.349Z,27.23
2018-11-22T19:12:56.000Z,27.47
2018-11-22T19:15:26.733Z,27.20
2018-11-22T19:17:55.604Z,29.57
2018-11-22T19:20:27.263Z,29.57
2018-11-22T19:22:56.685Z,27.70
2018-11-22T19:25:25.480Z,29.70
2018-11-22T19:27:54.863Z,28.50
2018-11-22T19:30:25.076Z,29.17
2018-11-22T19:32:55.009Z,32.87
2018-11-22T19:35:25.323Z,49.07
2018-11-22T19:37:54.139Z,42.47
2018-11-22T19:40:25.348Z,38.53
2018-11-22T19:42:55.268Z,35.87
2018-11-22T19:45:25.781Z,43.00
2018-11-22T19:47:54.625Z,37.77
2018-11-22T19:50:24.595Z,37.50
2018-11-22T19:52:54.004Z,37.20
2018-11-22T19:55:24.219Z,39.00
2018-11-22T19:57:54.345Z,33.57
2018-11-22T20:00:23.883Z,34.67
2018-11-22T20:02:54.584Z,33.23
2018-11-22T20:05:25.012Z,29.57
2018-11-22T20:07:55.332Z,30.90
2018-11-22T20:10:26.666Z,31.03
2018-11-22T20:12:55.572Z,32.63
2018-11-22T20:15:24.348Z,29.60
2018-11-22T20:17:53.537Z,27.90
2018-11-22T20:20:23.156Z,27.67
2018-11-22T20:22:52.496Z,27.40
2018-11-22T20:25:21.350Z,26.33
2018-11-22T20:27:51.077Z,26.97
2018-11-22T20:30:22.636Z,25.80
2018-11-22T20:32:51.643Z,26.77
2018-11-22T20:35:20.884Z,26.83
2018-11-22T20:37:50.440Z,25.23
2018-11-22T20:40:20.601Z,25.03
2018-11-22T20:42:49.564Z,25.13
2018-11-22T20:45:19.657Z,23.60
2018-11-22T20:47:50.093Z,23.93
2018-11-22T20:50:20.140Z,22.33
2018-11-22T20:52:49.126Z,23.07
2018-11-22T20:55:20.907Z,22.17
2018-11-22T20:57:51.821Z,29.50
2018-11-22T21:00:22.125Z,26.77
2018-11-22T21:02:50.972Z,34.03
2018-11-22T21:05:20.468Z,31.97
2018-11-22T21:07:49.328Z,26.70
2018-11-22T21:10:19.640Z,27.00
2018-11-22T21:12:49.122Z,25.50
2018-11-22T21:15:20.658Z,27.37
2018-11-22T21:17:50.621Z,23.00
2018-11-22T21:20:22.680Z,24.03
2018-11-22T21:22:51.544Z,23.77
2018-11-22T21:25:20.927Z,23.80
2018-11-22T21:27:49.765Z,24.10
2018-11-22T21:30:22.533Z,26.33
2018-11-22T21:32:51.996Z,22.63
2018-11-22T21:35:21.332Z,24.30
2018-11-22T21:37:51.105Z,23.27
2018-11-22T21:40:20.513Z,23.03
2018-11-22T21:42:49.356Z,22.70
2018-11-22T21:45:19.564Z,37.50
2018-11-22T21:47:48.421Z,57.17
2018-11-22T21:50:18.634Z,40.37
2018-11-22T21:52:47.568Z,30.33
2018-11-22T21:55:17.699Z,27.63
2018-11-22T21:57:47.225Z,30.70
2018-11-22T22:00:18.486Z,53.63
2018-11-22T22:02:52.638Z,44.00
2018-11-22T22:05:17.860Z,28.10
2018-11-22T22:07:46.677Z,29.30
2018-11-22T22:10:15.637Z,30.50
2018-11-22T22:12:44.457Z,34.63
2018-11-22T22:15:19.406Z,34.30
2018-11-22T22:17:48.512Z,30.70
2018-11-22T22:20:26.080Z,28.40
2018-11-22T22:22:54.889Z,24.57
2018-11-22T22:25:24.821Z,30.73
2018-11-22T22:27:54.329Z,30.63
2018-11-22T22:30:25.566Z,27.20
2018-11-22T22:32:55.808Z,26.07
2018-11-22T22:35:25.286Z,25.67
2018-11-22T22:37:54.241Z,28.03
2018-11-22T22:40:24.321Z,30.20
2018-11-22T22:42:54.539Z,35.53
2018-11-22T22:45:24.393Z,32.57
2018-11-22T22:47:54.337Z,32.60
2018-11-22T22:50:24.823Z,31.10
2018-11-22T22:52:56.518Z,27.23
2018-11-22T22:55:25.647Z,24.60
2018-11-22T22:57:54.458Z,27.20
2018-11-22T23:00:29.658Z,24.27
2018-11-22T23:03:00.877Z,24.60
2018-11-22T23:05:30.734Z,25.10
2018-11-22T23:07:59.726Z,26.47
2018-11-22T23:10:28.601Z,22.97
2018-11-22T23:12:58.720Z,22.83
2018-11-22T23:15:28.657Z,23.37
2018-11-22T23:17:57.534Z,25.23
2018-11-22T23:20:27.809Z,23.50
2018-11-22T23:22:56.693Z,32.40
2018-11-22T23:25:26.539Z,29.17
2018-11-22T23:27:55.384Z,30.63
2018-11-22T23:30:31.616Z,28.77
2018-11-22T23:33:02.116Z,25.50
2018-11-22T23:35:30.946Z,22.53
2018-11-22T23:37:59.808Z,25.63
2018-11-22T23:40:29.725Z,21.60
2018-11-22T23:42:58.761Z,21.83
2018-11-22T23:45:29.075Z,20.33
2018-11-22T23:47:58.103Z,19.37
2018-11-22T23:50:28.638Z,17.60
2018-11-22T23:52:58.594Z,17.37
2018-11-22T23:55:27.397Z,16.77
2018-11-22T23:57:57.271Z,17.10
